createdAt,value
2022-11-29T00:01:12.533Z,98458.91
2022-11-29T00:03:18.569Z,98454.78
2022-11-29T00:05:23.599Z,98460.63
2022-11-29T00:07:28.634Z,98456.47
2022-11-29T00:09:33.591Z,98453.09
2022-11-29T00:11:54.864Z,98448.09
2022-11-29T00:14:00.080Z,98453.09
2022-11-29T00:16:07.300Z,98443.09
2022-11-29T00:18:12.350Z,98447.31
2022-11-29T00:20:17.659Z,98446.47
2022-11-29T00:22:24.094Z,98445.66
2022-11-29T00:24:31.565Z,98448.16
2022-11-29T00:26:37.612Z,98450.69
2022-11-29T00:28:45.469Z,98448.16
2022-11-29T00:30:50.584Z,98444.81
2022-11-29T00:32:55.602Z,98451.53
2022-11-29T00:35:05.248Z,98448.16
2022-11-29T00:37:13.251Z,98450.66
2022-11-29T00:39:18.455Z,98444.81
2022-11-29T00:41:23.823Z,98449.81
2022-11-29T00:43:28.860Z,98453.16
2022-11-29T00:45:36.767Z,98445.66
2022-11-29T00:47:41.784Z,98447.38
2022-11-29T00:49:46.841Z,98440.72
2022-11-29T00:51:51.981Z,98448.22
2022-11-29T00:53:56.985Z,98443.22
2022-11-29T00:56:02.541Z,98449.88
2022-11-29T00:58:07.618Z,98453.19
2022-11-29T01:00:15.035Z,98448.22
2022-11-29T01:02:23.239Z,98449.09
2022-11-29T01:04:28.236Z,98444.91
2022-11-29T01:06:33.731Z,98447.44
2022-11-29T01:08:40.046Z,98444.09
2022-11-29T01:10:45.736Z,98446.59
2022-11-29T01:12:51.130Z,98448.28
2022-11-29T01:14:56.520Z,98449.94
2022-11-29T01:17:01.879Z,98449.94
2022-11-29T01:19:09.957Z,98451.59
2022-11-29T01:21:18.363Z,98455.75
2022-11-29T01:23:23.388Z,98454.09
2022-11-29T01:25:29.429Z,98452.41
2022-11-29T01:27:35.729Z,98462.41
2022-11-29T01:29:41.565Z,98464.03
2022-11-29T01:31:46.597Z,98461.50
2022-11-29T01:33:51.946Z,98461.50
2022-11-29T01:35:59.858Z,98469.78
2022-11-29T01:38:04.832Z,98468.97
2022-11-29T01:40:12.202Z,98464.78
2022-11-29T01:42:17.485Z,98463.13
2022-11-29T01:45:13.261Z,98463.06
2022-11-29T01:47:20.414Z,98469.72
2022-11-29T01:49:31.714Z,98464.75
2022-11-29T01:51:43.305Z,98464.75
2022-11-29T01:53:48.504Z,98469.72
2022-11-29T01:55:59.332Z,98469.69
2022-11-29T01:58:04.443Z,98468.06
2022-11-29T02:00:15.462Z,98468.06
2022-11-29T02:02:30.149Z,98468.06
2022-11-29T02:04:36.954Z,98468.00
2022-11-29T02:06:45.915Z,98464.69
2022-11-29T02:08:50.919Z,98469.69
2022-11-29T02:11:25.310Z,98472.16
2022-11-29T02:13:41.325Z,98463.00
2022-11-29T02:15:56.230Z,98467.16
2022-11-29T02:18:09.467Z,98463.00
2022-11-29T02:21:06.473Z,98467.16
2022-11-29T02:23:53.960Z,98468.84
2022-11-29T02:26:15.593Z,98472.13
2022-11-29T02:28:51.909Z,98467.94
2022-11-29T02:31:12.231Z,98472.06
2022-11-29T02:34:02.508Z,98462.94
2022-11-29T02:36:50.136Z,98472.91
2022-11-29T02:39:27.601Z,98474.56
2022-11-29T02:41:52.072Z,98471.22
2022-11-29T02:44:47.692Z,98466.22
2022-11-29T02:47:09.545Z,98472.88
2022-11-29T02:49:33.190Z,98474.56
2022-11-29T02:51:44.181Z,98471.22
2022-11-29T02:53:59.740Z,98472.88
2022-11-29T02:56:18.161Z,98473.72
2022-11-29T02:58:30.652Z,98476.22
2022-11-29T03:00:40.157Z,98474.56
2022-11-29T03:02:56.488Z,98474.56
2022-11-29T03:05:15.364Z,98474.56
2022-11-29T03:07:34.712Z,98476.22
2022-11-29T03:09:45.222Z,98474.56
2022-11-29T03:11:58.773Z,98482.84
2022-11-29T03:14:17.736Z,98477.00
2022-11-29T03:16:42.764Z,98482.84
2022-11-29T03:19:02.768Z,98483.69
2022-11-29T03:21:27.388Z,98486.19
2022-11-29T03:23:39.833Z,98497.88
2022-11-29T03:25:50.165Z,98498.69
2022-11-29T03:28:09.110Z,98487.88
2022-11-29T03:30:19.687Z,98497.88
2022-11-29T03:32:33.369Z,98497.81
2022-11-29T03:34:58.742Z,98499.47
2022-11-29T03:37:37.791Z,98502.81
2022-11-29T03:39:53.933Z,98504.47
2022-11-29T03:42:05.300Z,98492.81
2022-11-29T03:44:17.559Z,98501.97
2022-11-29T03:46:32.004Z,98504.47
2022-11-29T03:48:45.505Z,98497.81
2022-11-29T03:50:56.544Z,98500.31
2022-11-29T03:53:16.487Z,98500.25
2022-11-29T03:55:36.575Z,98500.25
2022-11-29T03:57:55.987Z,98502.75
2022-11-29T04:00:08.684Z,98499.41
2022-11-29T04:03:12.378Z,98504.41
2022-11-29T04:05:55.743Z,98506.06
2022-11-29T04:08:43.452Z,98506.09
2022-11-29T04:11:54.742Z,98506.09
2022-11-29T04:14:30.692Z,98507.78
2022-11-29T04:17:29.694Z,98504.47
2022-11-29T04:20:11.431Z,98501.13
2022-11-29T04:23:03.188Z,98506.13
2022-11-29T04:25:52.052Z,98502.81
2022-11-29T04:28:16.890Z,98510.25
2022-11-29T04:30:24.173Z,98514.47
2022-11-29T04:33:19.741Z,98512.78
2022-11-29T04:35:41.094Z,98518.63
2022-11-29T04:38:34.365Z,98521.09
2022-11-29T04:41:04.750Z,98521.09
2022-11-29T04:43:51.313Z,98525.19
2022-11-29T04:46:27.209Z,98520.22
2022-11-29T04:48:58.855Z,98529.41
2022-11-29T04:51:18.558Z,98530.22
2022-11-29T04:53:48.296Z,98536.06
2022-11-29T04:56:07.818Z,98535.22
2022-11-29T04:58:25.348Z,98536.88
2022-11-29T05:00:37.736Z,98532.72
2022-11-29T05:02:51.713Z,98542.72
2022-11-29T05:05:08.073Z,98541.88
2022-11-29T05:07:24.723Z,98538.56
2022-11-29T05:09:50.041Z,98546.03
2022-11-29T05:12:07.681Z,98542.69
2022-11-29T05:14:26.848Z,98549.38
2022-11-29T05:16:51.147Z,98546.03
2022-11-29T05:19:18.065Z,98555.16
2022-11-29T05:21:33.392Z,98562.72
2022-11-29T05:23:57.875Z,98566.00
2022-11-29T05:26:08.781Z,98562.66
2022-11-29T05:28:23.695Z,98566.88
2022-11-29T05:30:45.119Z,98562.66
2022-11-29T05:33:01.018Z,98561.00
2022-11-29T05:35:53.258Z,98561.88
2022-11-29T05:38:05.347Z,98565.16
2022-11-29T05:40:45.358Z,98567.66
2022-11-29T05:43:12.675Z,98567.66
2022-11-29T05:45:28.541Z,98573.50
2022-11-29T05:47:40.245Z,98573.50
2022-11-29T05:49:58.199Z,98575.97
2022-11-29T05:52:24.533Z,98574.31
2022-11-29T05:54:35.956Z,98584.31
2022-11-29T05:56:55.478Z,98580.13
2022-11-29T05:59:05.152Z,98580.94
2022-11-29T06:01:24.783Z,98589.25
2022-11-29T06:03:39.237Z,98593.41
2022-11-29T06:05:53.066Z,98594.25
2022-11-29T06:08:08.063Z,98590.09
2022-11-29T06:10:18.396Z,98589.25
2022-11-29T06:12:26.998Z,98593.41
2022-11-29T06:14:55.531Z,98600.88
2022-11-29T06:17:27.194Z,98600.88
2022-11-29T06:19:57.857Z,98599.25
2022-11-29T06:22:21.008Z,98605.91
2022-11-29T06:25:06.113Z,98610.13
2022-11-29T06:27:36.689Z,98610.91
2022-11-29T06:29:52.046Z,98610.09
2022-11-29T06:32:05.946Z,98604.25
2022-11-29T06:34:25.088Z,98609.25
2022-11-29T06:36:37.322Z,98610.06
2022-11-29T06:38:43.447Z,98607.56
2022-11-29T06:40:49.825Z,98607.56
2022-11-29T06:42:55.651Z,98613.38
2022-11-29T06:45:01.608Z,98612.56
2022-11-29T06:47:10.150Z,98615.06
2022-11-29T06:49:27.932Z,98610.88
2022-11-29T06:51:45.504Z,98616.72
2022-11-29T06:53:59.055Z,98614.22
2022-11-29T06:56:10.794Z,98617.56
2022-11-29T06:58:40.689Z,98625.06
2022-11-29T07:00:55.295Z,98624.22
2022-11-29T07:03:23.755Z,98636.72
2022-11-29T07:05:34.788Z,98620.84
2022-11-29T07:07:41.350Z,98627.50
2022-11-29T07:09:49.696Z,98629.16
2022-11-29T07:11:55.872Z,98627.50
2022-11-29T07:14:01.785Z,98644.16
2022-11-29T07:16:29.429Z,98647.50
2022-11-29T07:18:44.670Z,98637.50
2022-11-29T07:21:06.674Z,98640.78
2022-11-29T07:23:24.723Z,98650.78
2022-11-29T07:25:41.077Z,98639.88
2022-11-29T07:27:55.378Z,98647.38
2022-11-29T07:30:15.453Z,98637.38
2022-11-29T07:32:31.316Z,98638.19
2022-11-29T07:34:47.350Z,98644.00
2022-11-29T07:37:06.356Z,98643.13
2022-11-29T07:39:25.280Z,98646.44
2022-11-29T07:41:43.383Z,98651.44
2022-11-29T07:43:59.250Z,98653.94
2022-11-29T07:46:04.853Z,98653.06
2022-11-29T07:48:09.880Z,98658.84
2022-11-29T07:50:15.560Z,98655.47
2022-11-29T07:52:23.381Z,98656.22
2022-11-29T07:54:28.612Z,98655.38
2022-11-29T07:56:33.672Z,98657.00
2022-11-29T07:58:39.157Z,98665.34
2022-11-29T08:00:45.215Z,98657.81
2022-11-29T08:02:52.537Z,98666.09
2022-11-29T08:04:58.148Z,98666.88
2022-11-29T08:07:03.510Z,98672.66
2022-11-29T08:09:11.511Z,98676.84
2022-11-29T08:11:17.032Z,98673.50
2022-11-29T08:13:22.866Z,98673.44
2022-11-29T08:15:29.143Z,98677.53
2022-11-29T08:17:34.192Z,98680.03
2022-11-29T08:19:39.292Z,98675.81
2022-11-29T08:21:48.279Z,98677.47
2022-11-29T08:23:54.317Z,98679.97
2022-11-29T08:26:06.204Z,98682.41
2022-11-29T08:28:11.995Z,98688.19
2022-11-29T08:30:19.108Z,98689.88
2022-11-29T08:32:24.422Z,98692.44
2022-11-29T08:34:30.357Z,98690.63
2022-11-29T08:36:35.625Z,98697.19
2022-11-29T08:38:40.729Z,98693.75
2022-11-29T08:40:45.760Z,98687.81
2022-11-29T08:42:53.832Z,98690.28
2022-11-29T08:44:58.816Z,98693.56
2022-11-29T08:47:16.701Z,98699.28
2022-11-29T08:49:22.362Z,98696.69
2022-11-29T08:51:27.382Z,98700.81
2022-11-29T08:53:41.938Z,98701.63
2022-11-29T08:55:47.402Z,98699.06
2022-11-29T08:57:56.885Z,98704.03
2022-11-29T09:00:01.950Z,98704.91
2022-11-29T09:02:07.035Z,98713.31
2022-11-29T09:04:14.309Z,98707.44
2022-11-29T09:06:19.448Z,98712.34
2022-11-29T09:08:24.691Z,98714.00
2022-11-29T09:10:29.743Z,98725.69
2022-11-29T09:12:35.261Z,98724.06
2022-11-29T09:14:43.114Z,98721.56
2022-11-29T09:16:48.369Z,98724.03
2022-11-29T09:18:55.835Z,98726.63
2022-11-29T09:21:01.287Z,98726.63
2022-11-29T09:23:06.362Z,98728.22
2022-11-29T09:25:11.914Z,98730.78
2022-11-29T09:27:17.194Z,98734.13
2022-11-29T09:29:22.482Z,98729.88
2022-11-29T09:31:32.244Z,98739.84
2022-11-29T09:33:37.590Z,98744.00
2022-11-29T09:35:42.600Z,98744.00
2022-11-29T09:37:47.697Z,98739.06
2022-11-29T09:39:52.718Z,98744.06
2022-11-29T09:42:30.633Z,98744.09
2022-11-29T09:44:52.288Z,98750.81
2022-11-29T09:47:17.798Z,98742.34
2022-11-29T09:50:02.170Z,98749.88
2022-11-29T09:52:17.228Z,98755.69
2022-11-29T09:54:36.002Z,98757.38
2022-11-29T09:56:46.756Z,98760.75
2022-11-29T09:59:00.190Z,98759.06
2022-11-29T10:01:12.048Z,98769.13
2022-11-29T10:03:27.937Z,98765.72
2022-11-29T10:05:40.763Z,98765.84
2022-11-29T10:07:51.688Z,98766.75
2022-11-29T10:10:03.771Z,98765.84
2022-11-29T10:12:19.946Z,98768.38
2022-11-29T10:14:31.619Z,98764.19
2022-11-29T10:16:47.507Z,98765.91
2022-11-29T10:19:01.512Z,98759.19
2022-11-29T10:21:15.843Z,98762.59
2022-11-29T10:23:31.210Z,98760.84
2022-11-29T10:25:45.168Z,98768.28
2022-11-29T10:27:51.042Z,98767.53
2022-11-29T10:29:56.634Z,98765.72
2022-11-29T10:32:10.078Z,98760.72
2022-11-29T10:34:21.763Z,98762.31
2022-11-29T10:36:35.657Z,98758.13
2022-11-29T10:38:40.667Z,98760.63
2022-11-29T10:40:50.278Z,98760.56
2022-11-29T10:42:55.749Z,98762.31
2022-11-29T10:45:02.644Z,98761.47
2022-11-29T10:47:11.053Z,98761.41
2022-11-29T10:49:23.688Z,98768.91
2022-11-29T10:51:29.210Z,98760.50
2022-11-29T10:53:39.795Z,98761.34
2022-11-29T10:55:51.790Z,98758.88
2022-11-29T10:58:15.266Z,98763.84
2022-11-29T11:00:20.843Z,98763.84
2022-11-29T11:02:27.600Z,98765.44
2022-11-29T11:04:39.856Z,98762.91
2022-11-29T11:06:49.183Z,98764.59
2022-11-29T11:08:57.168Z,98757.09
2022-11-29T11:11:02.508Z,98764.59
2022-11-29T11:13:22.926Z,98762.00
2022-11-29T11:15:33.276Z,98761.88
2022-11-29T11:17:40.093Z,98764.38
2022-11-29T11:20:00.899Z,98762.78
2022-11-29T11:22:07.380Z,98768.63
2022-11-29T11:24:27.024Z,98767.78
2022-11-29T11:26:46.390Z,98764.59
2022-11-29T11:28:56.947Z,98769.63
2022-11-29T11:31:05.698Z,98767.09
2022-11-29T11:33:21.098Z,98772.16
2022-11-29T11:35:29.248Z,98767.94
2022-11-29T11:37:35.840Z,98772.88
2022-11-29T11:39:41.700Z,98774.50
2022-11-29T11:42:00.504Z,98775.31
2022-11-29T11:44:14.966Z,98783.81
2022-11-29T11:46:21.158Z,98779.69
2022-11-29T11:48:27.360Z,98782.28
2022-11-29T11:50:40.909Z,98780.63
2022-11-29T11:52:50.697Z,98794.81
2022-11-29T11:55:02.568Z,98791.41
2022-11-29T11:57:07.628Z,98796.34
2022-11-29T11:59:21.379Z,98790.56
2022-11-29T12:01:31.768Z,98788.06
2022-11-29T12:03:48.600Z,98789.72
2022-11-29T12:06:01.073Z,98795.56
2022-11-29T12:08:08.629Z,98794.66
2022-11-29T12:10:22.523Z,98793.84
2022-11-29T12:12:32.355Z,98795.44
2022-11-29T12:14:48.734Z,98790.41
2022-11-29T12:17:04.557Z,98800.38
2022-11-29T12:19:20.429Z,98799.53
2022-11-29T12:21:35.065Z,98798.72
2022-11-29T12:23:47.025Z,98799.56
2022-11-29T12:25:56.316Z,98805.31
2022-11-29T12:28:01.398Z,98803.63
2022-11-29T12:30:15.600Z,98803.50
2022-11-29T12:32:50.951Z,98806.91
2022-11-29T12:35:20.105Z,98813.59
2022-11-29T12:37:37.446Z,98816.09
2022-11-29T12:39:59.284Z,98812.69
2022-11-29T12:42:13.094Z,98812.69
2022-11-29T12:44:35.211Z,98811.88
2022-11-29T12:46:40.921Z,98815.19
2022-11-29T12:48:55.727Z,98810.19
2022-11-29T12:51:10.684Z,98806.00
2022-11-29T12:53:48.188Z,98809.34
2022-11-29T12:56:05.024Z,98813.50
2022-11-29T12:58:16.891Z,98807.69
2022-11-29T13:00:23.748Z,98805.22
2022-11-29T13:02:43.697Z,98811.00
2022-11-29T13:05:00.726Z,98810.94
2022-11-29T13:07:15.281Z,98815.22
2022-11-29T13:09:50.485Z,98818.53
2022-11-29T13:12:01.275Z,98813.50
2022-11-29T13:14:41.580Z,98816.84
2022-11-29T13:16:52.840Z,98813.50
2022-11-29T13:19:07.845Z,98821.88
2022-11-29T13:21:18.307Z,98816.84
2022-11-29T13:23:46.166Z,98822.72
2022-11-29T13:26:07.386Z,98821.91
2022-11-29T13:28:19.827Z,98824.47
2022-11-29T13:30:25.086Z,98817.75
2022-11-29T13:32:39.138Z,98826.13
2022-11-29T13:34:48.196Z,98827.03
2022-11-29T13:37:10.509Z,98821.13
2022-11-29T13:39:33.339Z,98817.78
2022-11-29T13:41:48.965Z,98813.66
2022-11-29T13:44:05.760Z,98815.25
2022-11-29T13:46:23.399Z,98820.28
2022-11-29T13:48:39.571Z,98816.13
2022-11-29T13:50:46.859Z,98822.78
2022-11-29T13:52:53.159Z,98818.59
2022-11-29T13:55:31.788Z,98827.78
2022-11-29T14:00:37.175Z,98825.31
2022-11-29T14:02:42.277Z,98826.19
2022-11-29T14:04:49.487Z,98826.28
2022-11-29T14:07:13.760Z,98832.13
2022-11-29T14:09:29.889Z,98827.97
2022-11-29T14:11:46.177Z,98826.28
2022-11-29T14:13:57.744Z,98832.19
2022-11-29T14:16:07.363Z,98833.84
2022-11-29T14:19:06.393Z,98832.22
2022-11-29T14:21:13.266Z,98833.94
2022-11-29T14:23:33.979Z,98832.25
2022-11-29T14:25:51.549Z,98834.75
2022-11-29T14:28:07.636Z,98833.94
2022-11-29T14:30:49.833Z,98832.31
2022-11-29T14:33:01.465Z,98839.00
2022-11-29T14:35:19.656Z,98836.50
2022-11-29T14:37:47.194Z,98839.00
2022-11-29T14:39:57.278Z,98834.06
2022-11-29T14:42:17.084Z,98840.69
2022-11-29T14:44:28.175Z,98845.75
2022-11-29T14:46:35.620Z,98845.75
2022-11-29T14:48:41.540Z,98844.09
2022-11-29T14:50:49.357Z,98846.66
2022-11-29T14:52:56.378Z,98850.81
2022-11-29T14:55:11.018Z,98852.50
2022-11-29T14:58:07.329Z,98851.72
2022-11-29T15:00:14.702Z,98853.41
2022-11-29T15:02:35.448Z,98850.91
2022-11-29T15:04:42.157Z,98860.09
2022-11-29T15:06:53.201Z,98854.31
2022-11-29T15:09:06.603Z,98862.66
2022-11-29T15:11:26.111Z,98857.69
2022-11-29T15:13:37.129Z,98860.22
2022-11-29T15:16:08.648Z,98861.88
2022-11-29T15:18:36.164Z,98865.34
2022-11-29T15:20:57.663Z,98870.28
2022-11-29T15:23:09.066Z,98876.16
2022-11-29T15:25:17.011Z,98872.84
2022-11-29T15:27:22.763Z,98879.53
2022-11-29T15:29:30.579Z,98872.03
2022-11-29T15:31:36.114Z,98872.06
2022-11-29T15:33:44.294Z,98867.94
2022-11-29T15:35:53.689Z,98882.16
2022-11-29T15:37:59.570Z,98880.47
2022-11-29T15:40:13.712Z,98879.66
2022-11-29T15:42:19.126Z,98877.97
2022-11-29T15:44:26.130Z,98880.50
2022-11-29T15:46:33.792Z,98878.81
2022-11-29T15:48:39.485Z,98883.00
2022-11-29T15:50:52.453Z,98895.50
2022-11-29T15:53:02.659Z,98895.50
2022-11-29T15:55:15.895Z,98898.84
2022-11-29T15:57:27.123Z,98903.84
2022-11-29T15:59:39.065Z,98901.34
2022-11-29T16:01:49.646Z,98899.63
2022-11-29T16:03:58.416Z,98904.63
2022-11-29T16:06:22.834Z,98907.97
2022-11-29T16:08:31.786Z,98912.16
2022-11-29T16:10:47.570Z,98908.81
2022-11-29T16:12:58.499Z,98911.31
2022-11-29T16:15:04.456Z,98914.66
2022-11-29T16:17:11.281Z,98908.03
2022-11-29T16:19:32.176Z,98915.53
2022-11-29T16:21:37.191Z,98911.38
2022-11-29T16:23:44.659Z,98918.06
2022-11-29T16:26:05.290Z,98913.88
2022-11-29T16:28:14.391Z,98918.03
2022-11-29T16:30:25.608Z,98923.84
2022-11-29T16:32:34.248Z,98923.06
2022-11-29T16:34:44.276Z,98918.09
2022-11-29T16:36:49.641Z,98933.13
2022-11-29T16:38:57.547Z,98927.28
2022-11-29T16:41:23.109Z,98933.06
2022-11-29T16:43:53.952Z,98926.38
2022-11-29T16:46:43.813Z,98922.22
2022-11-29T16:48:49.543Z,98933.06
2022-11-29T16:51:24.989Z,98928.06
2022-11-29T16:53:38.986Z,98936.41
2022-11-29T16:55:43.996Z,98930.59
2022-11-29T16:57:52.334Z,98937.25
2022-11-29T16:59:57.514Z,98928.06
2022-11-29T17:02:02.736Z,98932.25
2022-11-29T17:04:08.061Z,98943.09
2022-11-29T17:06:15.227Z,98938.06
2022-11-29T17:08:20.398Z,98941.41
2022-11-29T17:10:28.890Z,98938.06
2022-11-29T17:12:33.975Z,98934.69
2022-11-29T17:14:42.630Z,98936.38
2022-11-29T17:16:49.224Z,98931.31
2022-11-29T17:18:55.441Z,98937.97
2022-11-29T17:21:00.949Z,98944.69
2022-11-29T17:23:06.017Z,98943.88
2022-11-29T17:25:12.844Z,98944.75
2022-11-29T17:27:17.963Z,98941.41
2022-11-29T17:29:22.975Z,98947.28
2022-11-29T17:31:31.416Z,98949.75
2022-11-29T17:33:37.133Z,98949.75
2022-11-29T17:35:42.156Z,98947.28
2022-11-29T17:37:47.178Z,98948.94
2022-11-29T17:39:52.228Z,98949.75
2022-11-29T17:41:57.449Z,98954.78
2022-11-29T17:44:03.681Z,98953.94
2022-11-29T17:46:13.308Z,98963.94
2022-11-29T17:48:21.427Z,98956.44
2022-11-29T17:50:26.440Z,98962.28
2022-11-29T17:52:31.441Z,98963.13
2022-11-29T17:54:36.524Z,98966.47
2022-11-29T17:56:41.606Z,98968.19
2022-11-29T17:58:47.661Z,98968.19
2022-11-29T18:00:52.664Z,98969.03
2022-11-29T18:02:57.777Z,98970.69
2022-11-29T18:05:05.649Z,98969.03
2022-11-29T18:07:10.685Z,98968.19
2022-11-29T18:09:15.711Z,98969.84
2022-11-29T18:11:24.856Z,98967.34
2022-11-29T18:13:30.825Z,98971.53
2022-11-29T18:15:36.134Z,98968.19
2022-11-29T18:17:41.125Z,98966.56
2022-11-29T18:19:46.526Z,98974.91
2022-11-29T18:21:54.525Z,98976.56
2022-11-29T18:24:02.310Z,98977.41
2022-11-29T18:26:10.216Z,98974.91
2022-11-29T18:28:15.225Z,98980.75
2022-11-29T18:30:20.616Z,98975.75
2022-11-29T18:32:25.704Z,98977.41
2022-11-29T18:34:30.674Z,98983.22
2022-11-29T18:36:40.009Z,98978.19
2022-11-29T18:38:49.179Z,98977.31
2022-11-29T18:40:54.165Z,98969.84
2022-11-29T18:42:59.208Z,98979.81
2022-11-29T18:45:04.217Z,98978.19
2022-11-29T18:47:09.263Z,98980.72
2022-11-29T18:49:16.820Z,98984.03
2022-11-29T18:51:23.211Z,98974.88
2022-11-29T18:53:28.349Z,98989.09
2022-11-29T18:55:36.081Z,98986.59
2022-11-29T18:57:41.087Z,98991.59
2022-11-29T18:59:46.068Z,98988.31
2022-11-29T19:01:52.521Z,98993.31
2022-11-29T19:04:01.478Z,98991.66
2022-11-29T19:06:09.709Z,98991.66
2022-11-29T19:08:14.721Z,98996.66
2022-11-29T19:10:19.864Z,98998.31
2022-11-29T19:12:27.461Z,98999.16
2022-11-29T19:14:33.917Z,99003.28
2022-11-29T19:16:38.948Z,99004.91
2022-11-29T19:18:44.031Z,98998.25
2022-11-29T19:20:49.049Z,99001.63
2022-11-29T19:23:00.149Z,98999.91
2022-11-29T19:25:05.585Z,98998.22
2022-11-29T19:27:10.743Z,98999.91
2022-11-29T19:29:19.069Z,99003.25
2022-11-29T19:31:27.268Z,98998.25
2022-11-29T19:33:32.495Z,99003.25
2022-11-29T19:35:38.097Z,99004.91
2022-11-29T19:37:43.126Z,99003.25
2022-11-29T19:39:48.466Z,99004.13
2022-11-29T19:41:53.584Z,99004.09
2022-11-29T19:44:00.698Z,99001.63
2022-11-29T19:46:13.956Z,98999.09
2022-11-29T19:48:18.840Z,99002.44
2022-11-29T19:50:23.860Z,99003.28
2022-11-29T19:52:29.107Z,99003.28
2022-11-29T19:54:34.501Z,99001.63
2022-11-29T19:56:40.169Z,99001.63
2022-11-29T19:58:45.898Z,99006.63
2022-11-29T20:00:50.971Z,98999.94
2022-11-29T20:02:58.896Z,99001.66
2022-11-29T20:05:03.965Z,99009.16
2022-11-29T20:07:09.010Z,99005.00
2022-11-29T20:09:16.207Z,99011.69
2022-11-29T20:11:24.093Z,99015.84
2022-11-29T20:13:29.173Z,99014.97
2022-11-29T20:15:34.357Z,99018.34
2022-11-29T20:17:39.681Z,99015.84
2022-11-29T20:19:47.599Z,99015.88
2022-11-29T20:21:52.848Z,99020.06
2022-11-29T20:23:58.935Z,99021.72
2022-11-29T20:26:05.756Z,99020.91
2022-11-29T20:28:11.104Z,99024.22
2022-11-29T20:30:18.796Z,99024.22
2022-11-29T20:32:24.427Z,99036.75
2022-11-29T20:34:29.873Z,99028.41
2022-11-29T20:37:09.256Z,99025.91
2022-11-29T20:39:29.365Z,99030.13
2022-11-29T20:41:43.269Z,99032.63
2022-11-29T20:43:56.903Z,99034.31
2022-11-29T20:46:02.726Z,99031.81
2022-11-29T20:48:17.657Z,99038.50
2022-11-29T20:50:26.296Z,99044.34
2022-11-29T20:52:46.718Z,99040.13
2022-11-29T20:54:51.725Z,99046.81
2022-11-29T20:56:56.774Z,99049.31
2022-11-29T20:59:02.162Z,99050.09
2022-11-29T21:01:08.294Z,99048.47
2022-11-29T21:03:16.634Z,99041.81
2022-11-29T21:05:21.800Z,99041.81
2022-11-29T21:07:26.869Z,99046.81
2022-11-29T21:09:34.521Z,99044.31
2022-11-29T21:11:40.549Z,99042.63
2022-11-29T21:13:47.658Z,99046.00
2022-11-29T21:15:54.350Z,99050.19
2022-11-29T21:18:01.056Z,99046.84
2022-11-29T21:20:07.548Z,99046.88
2022-11-29T21:22:21.109Z,99051.88
2022-11-29T21:24:41.999Z,99051.06
2022-11-29T21:26:53.025Z,99048.56
2022-11-29T21:29:09.888Z,99049.38
2022-11-29T21:31:19.320Z,99052.69
2022-11-29T21:33:25.174Z,99047.69
2022-11-29T21:35:30.251Z,99050.19
2022-11-29T21:37:35.307Z,99046.88
2022-11-29T21:39:42.960Z,99051.88
2022-11-29T21:41:48.974Z,99045.22
2022-11-29T21:44:09.231Z,99052.72
2022-11-29T21:46:14.369Z,99057.72
2022-11-29T21:48:31.888Z,99051.84
2022-11-29T21:50:36.957Z,99046.00
2022-11-29T21:52:43.662Z,99052.72
2022-11-29T21:54:51.285Z,99052.72
2022-11-29T21:56:56.439Z,99052.72
2022-11-29T21:59:01.455Z,99056.09
2022-11-29T22:01:12.312Z,99051.94
2022-11-29T22:03:17.744Z,99050.25
2022-11-29T22:05:23.144Z,99046.94
2022-11-29T22:07:31.527Z,99044.44
2022-11-29T22:09:36.617Z,99049.50
2022-11-29T22:11:44.516Z,99047.00
2022-11-29T22:14:01.826Z,99052.00
2022-11-29T22:16:10.612Z,99048.69
2022-11-29T22:18:16.096Z,99048.72
2022-11-29T22:20:21.582Z,99052.06
2022-11-29T22:22:28.194Z,99044.56
2022-11-29T22:24:38.465Z,99047.03
2022-11-29T22:26:47.026Z,99045.34
2022-11-29T22:28:52.341Z,99043.66
2022-11-29T22:31:08.621Z,99048.66
2022-11-29T22:33:13.751Z,99052.88
2022-11-29T22:35:19.212Z,99051.19
2022-11-29T22:37:24.258Z,99050.34
2022-11-29T22:39:29.772Z,99053.72
2022-11-29T22:41:36.167Z,99058.72
2022-11-29T22:43:45.022Z,99063.69
2022-11-29T22:45:50.189Z,99068.69
2022-11-29T22:47:55.214Z,99062.03
2022-11-29T22:50:00.381Z,99063.66
2022-11-29T22:52:07.778Z,99062.88
2022-11-29T22:54:15.421Z,99072.03
2022-11-29T22:56:21.277Z,99078.75
2022-11-29T22:58:26.576Z,99067.06
2022-11-29T23:00:42.545Z,99067.03
2022-11-29T23:02:47.989Z,99072.06
2022-11-29T23:04:52.976Z,99072.09
2022-11-29T23:06:58.012Z,99073.78
2022-11-29T23:09:10.744Z,99076.28
2022-11-29T23:11:18.322Z,99076.31
2022-11-29T23:13:23.329Z,99077.16
2022-11-29T23:15:28.611Z,99083.84
2022-11-29T23:17:36.257Z,99087.19
2022-11-29T23:19:41.265Z,99078.84
2022-11-29T23:21:47.301Z,99080.53
2022-11-29T23:23:56.654Z,99081.34
2022-11-29T23:26:02.903Z,99079.72
2022-11-29T23:28:08.003Z,99077.19
2022-11-29T23:30:15.633Z,99075.56
2022-11-29T23:32:20.653Z,99073.88
2022-11-29T23:34:29.562Z,99068.88
2022-11-29T23:36:34.677Z,99069.72
2022-11-29T23:38:42.571Z,99078.88
2022-11-29T23:40:48.064Z,99074.75
2022-11-29T23:42:54.291Z,99073.91
2022-11-29T23:44:59.272Z,99074.75
2022-11-29T23:47:04.310Z,99073.94
2022-11-29T23:49:09.652Z,99068.94
2022-11-29T23:51:18.169Z,99069.78
2022-11-29T23:53:23.267Z,99067.31
2022-11-29T23:55:29.181Z,99064.00
2022-11-29T23:57:34.846Z,99072.34
2022-11-29T23:59:39.980Z,99063.16
